createdAt,value
2018-02-10T00:00:24.709Z,4.6
2018-02-10T00:01:24.723Z,4.63
2018-02-10T00:02:24.979Z,4.77
2018-02-10T00:03:24.777Z,4.66
2018-02-10T00:04:24.760Z,4.66
2018-02-10T00:05:24.527Z,4.58
2018-02-10T00:06:24.801Z,4.59
2018-02-10T00:07:25.008Z,4.5
2018-02-10T00:08:24.820Z,4.56
2018-02-10T00:09:24.853Z,4.48
2018-02-10T00:10:25.105Z,4.42
2018-02-10T00:11:25.113Z,4.38
2018-02-10T00:12:24.873Z,4.45
2018-02-10T00:13:24.636Z,4.41
2018-02-10T00:14:24.899Z,4.4
2018-02-10T00:15:24.923Z,4.4
2018-02-10T00:16:25.180Z,4.38
2018-02-10T00:17:24.942Z,4.44
2018-02-10T00:18:24.961Z,4.37
2018-02-10T00:19:24.969Z,4.3
2018-02-10T00:20:25.245Z,4.49
2018-02-10T00:21:25.247Z,4.42
2018-02-10T00:22:25.010Z,4.53
2018-02-10T00:23:24.774Z,4.53
2018-02-10T00:24:25.290Z,4.45
2018-02-10T00:25:25.049Z,4.5
2018-02-10T00:26:24.815Z,4.37
2018-02-10T00:27:25.084Z,4.4
2018-02-10T00:28:24.855Z,4.44
2018-02-10T00:29:25.108Z,4.49
2018-02-10T00:30:25.122Z,4.53
2018-02-10T00:31:24.884Z,4.35
2018-02-10T00:32:25.154Z,4.4
2018-02-10T00:33:25.162Z,4.41
2018-02-10T00:34:25.178Z,4.37
2018-02-10T00:35:25.444Z,4.41
2018-02-10T00:36:25.457Z,4.49
2018-02-10T00:37:25.222Z,4.5
2018-02-10T00:38:25.484Z,4.42
2018-02-10T00:39:25.245Z,4.41
2018-02-10T00:40:25.267Z,4.42
2018-02-10T00:41:25.027Z,4.38
2018-02-10T00:42:25.291Z,4.38
2018-02-10T00:43:25.552Z,4.31
2018-02-10T00:44:25.569Z,4.38
2018-02-10T00:45:25.339Z,4.37
2018-02-10T00:46:25.340Z,4.41
2018-02-10T00:47:25.615Z,4.42
2018-02-10T00:48:25.372Z,4.5
2018-02-10T00:49:25.392Z,4.35
2018-02-10T00:50:25.652Z,4.37
2018-02-10T00:51:25.417Z,4.38
2018-02-10T00:52:25.431Z,4.32
2018-02-10T00:53:25.186Z,4.24
2018-02-10T00:54:25.205Z,4.04
2018-02-10T00:55:25.468Z,4.02
2018-02-10T00:56:25.481Z,3.98
2018-02-10T00:57:25.747Z,3.98
2018-02-10T00:58:25.763Z,4.02
2018-02-10T00:59:25.775Z,3.96
2018-02-10T01:00:25.284Z,3.88
2018-02-10T01:01:25.553Z,3.94
2018-02-10T01:02:25.566Z,3.99
2018-02-10T01:03:25.327Z,3.91
2018-02-10T01:04:25.591Z,3.94
2018-02-10T01:05:25.612Z,3.95
2018-02-10T01:06:25.868Z,3.92
2018-02-10T01:07:25.883Z,3.96
2018-02-10T01:08:25.658Z,3.98
2018-02-10T01:09:25.657Z,3.86
2018-02-10T01:10:25.925Z,3.8
2018-02-10T01:11:25.705Z,3.76
2018-02-10T01:12:25.728Z,3.76
2018-02-10T01:13:25.710Z,3.86
2018-02-10T01:14:25.979Z,3.91
2018-02-10T01:15:25.739Z,3.8
2018-02-10T01:16:26.005Z,3.88
2018-02-10T01:17:25.767Z,3.88
2018-02-10T01:18:25.786Z,3.8
2018-02-10T01:19:26.046Z,3.91
2018-02-10T01:20:25.806Z,3.92
2018-02-10T01:21:26.121Z,3.84
2018-02-10T01:22:26.088Z,3.92
2018-02-10T01:23:26.099Z,3.92
2018-02-10T01:24:26.111Z,3.96
2018-02-10T01:25:25.641Z,3.96
2018-02-10T01:26:25.894Z,3.88
2018-02-10T01:27:25.904Z,3.81
2018-02-10T01:28:26.163Z,3.88
2018-02-10T01:29:25.928Z,3.83
2018-02-10T01:30:25.941Z,3.76
2018-02-10T01:31:25.952Z,3.81
2018-02-10T01:32:26.019Z,3.91
2018-02-10T01:33:25.727Z,3.87
2018-02-10T01:34:25.996Z,3.86
2018-02-10T01:35:26.219Z,3.81
2018-02-10T01:36:26.406Z,3.77
2018-02-10T01:37:26.287Z,3.8
2018-02-10T01:38:26.048Z,3.48
2018-02-10T01:39:26.300Z,3.48
2018-02-10T01:40:26.074Z,3.34
2018-02-10T01:41:26.090Z,3.31
2018-02-10T01:42:26.134Z,3.37
2018-02-10T01:43:26.370Z,3.41
2018-02-10T01:44:26.378Z,3.29
2018-02-10T01:45:26.391Z,3.32
2018-02-10T01:46:26.152Z,3.31
2018-02-10T01:47:26.187Z,3.31
2018-02-10T01:48:26.185Z,3.36
2018-02-10T01:49:26.197Z,3.36
2018-02-10T01:50:26.503Z,3.34
2018-02-10T01:51:26.219Z,3.32
2018-02-10T01:52:26.231Z,3.18
2018-02-10T01:53:26.511Z,3.21
2018-02-10T01:54:26.256Z,3.14
2018-02-10T01:55:26.519Z,3.22
2018-02-10T01:56:26.283Z,3.18
2018-02-10T01:57:26.314Z,3.16
2018-02-10T01:58:26.563Z,3.08
2018-02-10T01:59:26.574Z,3.13
2018-02-10T02:00:26.334Z,3.1
2018-02-10T02:01:26.348Z,3.16
2018-02-10T02:02:26.610Z,3.1
2018-02-10T02:03:26.627Z,3.16
2018-02-10T02:04:26.389Z,3.19
2018-02-10T02:05:26.402Z,3.22
2018-02-10T02:06:26.414Z,3.26
2018-02-10T02:07:26.172Z,3.36
2018-02-10T02:08:26.700Z,3.32
2018-02-10T02:09:26.449Z,3.36
2018-02-10T02:10:26.470Z,3.29
2018-02-10T02:11:26.740Z,3.26
2018-02-10T02:12:26.496Z,3.18
2018-02-10T02:13:26.512Z,3.22
2018-02-10T02:14:26.521Z,3.29
2018-02-10T02:15:26.281Z,3.18
2018-02-10T02:16:26.797Z,3.11
2018-02-10T02:17:26.811Z,3.13
2018-02-10T02:18:26.318Z,3.23
2018-02-10T02:19:26.580Z,3.21
2018-02-10T02:20:26.849Z,3.21
2018-02-10T02:21:26.357Z,3.11
2018-02-10T02:22:26.870Z,3.05
2018-02-10T02:23:26.637Z,3.03
2018-02-10T02:24:26.393Z,2.93
2018-02-10T02:25:26.707Z,3.01
2018-02-10T02:26:26.683Z,3.04
2018-02-10T02:27:26.683Z,3.16
2018-02-10T02:28:26.698Z,3.19
2018-02-10T02:29:26.459Z,3.22
2018-02-10T02:30:26.999Z,3.21
2018-02-10T02:31:26.740Z,3.23
2018-02-10T02:32:27.020Z,3.28
2018-02-10T02:33:26.764Z,3.32
2018-02-10T02:34:27.035Z,3.31
2018-02-10T02:35:27.057Z,3.32
2018-02-10T02:36:26.805Z,3.4
2018-02-10T02:37:26.825Z,3.4
2018-02-10T02:38:26.579Z,3.34
2018-02-10T02:39:27.098Z,3.51
2018-02-10T02:40:26.863Z,3.53
2018-02-10T02:41:27.122Z,3.62
2018-02-10T02:42:26.886Z,3.63
2018-02-10T02:43:27.148Z,3.58
2018-02-10T02:44:27.163Z,3.5
2018-02-10T02:45:26.925Z,3.53
2018-02-10T02:46:27.184Z,3.5
2018-02-10T02:47:26.949Z,3.47
2018-02-10T02:48:26.958Z,3.48
2018-02-10T02:49:27.235Z,3.5
2018-02-10T02:50:27.240Z,3.29
2018-02-10T02:51:27.009Z,3.23
2018-02-10T02:52:27.012Z,3.26
2018-02-10T02:53:27.281Z,3.31
2018-02-10T02:54:26.796Z,3.23
2018-02-10T02:55:27.057Z,3.18
2018-02-10T02:56:27.320Z,3.13
2018-02-10T02:57:26.827Z,3.1
2018-02-10T02:58:26.839Z,3.11
2018-02-10T02:59:27.354Z,3.13
2018-02-10T03:00:27.124Z,3.16
2018-02-10T03:01:27.390Z,3.28
2018-02-10T03:02:27.394Z,3.32
2018-02-10T03:03:27.407Z,3.19
2018-02-10T03:04:27.170Z,3.29
2018-02-10T03:05:26.930Z,3.19
2018-02-10T03:06:26.942Z,3.25
2018-02-10T03:07:26.977Z,3.21
2018-02-10T03:08:27.486Z,3.19
2018-02-10T03:09:27.236Z,3.03
2018-02-10T03:10:27.245Z,2.8
2018-02-10T03:11:27.528Z,2.8
2018-02-10T03:12:27.019Z,2.83
2018-02-10T03:13:27.039Z,2.86
2018-02-10T03:14:27.045Z,3.05
2018-02-10T03:15:27.573Z,3
2018-02-10T03:16:27.311Z,3
2018-02-10T03:17:27.326Z,3.04
2018-02-10T03:18:27.338Z,3.14
2018-02-10T03:19:27.356Z,3.14
2018-02-10T03:20:27.365Z,3.14
2018-02-10T03:21:27.154Z,3.01
2018-02-10T03:22:27.404Z,3.07
2018-02-10T03:23:27.415Z,3.05
2018-02-10T03:24:27.426Z,3.07
2018-02-10T03:25:27.439Z,3.07
2018-02-10T03:26:27.204Z,3
2018-02-10T03:27:27.485Z,2.95
2018-02-10T03:28:27.731Z,2.92
2018-02-10T03:29:27.561Z,2.86
2018-02-10T03:30:27.528Z,2.92
2018-02-10T03:31:27.523Z,2.95
2018-02-10T03:32:27.787Z,2.86
2018-02-10T03:33:27.285Z,2.95
2018-02-10T03:34:27.547Z,2.85
2018-02-10T03:35:27.814Z,2.82
2018-02-10T03:36:27.335Z,2.82
2018-02-10T03:37:27.605Z,2.67
2018-02-10T03:38:27.602Z,2.86
2018-02-10T03:39:27.873Z,2.8
2018-02-10T03:40:27.878Z,2.79
2018-02-10T03:41:27.386Z,2.86
2018-02-10T03:42:27.902Z,3.07
2018-02-10T03:43:27.668Z,3.04
2018-02-10T03:44:27.681Z,3.01
2018-02-10T03:45:27.708Z,2.95
2018-02-10T03:46:27.755Z,2.97
2018-02-10T03:47:27.972Z,3.16
2018-02-10T03:48:27.730Z,3.18
2018-02-10T03:49:27.509Z,3.18
2018-02-10T03:50:28.025Z,3.32
2018-02-10T03:51:27.788Z,3.34
2018-02-10T03:52:27.784Z,3.21
2018-02-10T03:53:27.541Z,3.26
2018-02-10T03:54:27.556Z,3.26
2018-02-10T03:55:27.829Z,3.21
2018-02-10T03:56:27.596Z,3.14
2018-02-10T03:57:27.848Z,3.23
2018-02-10T03:58:27.858Z,3.22
2018-02-10T03:59:28.122Z,3.13
2018-02-10T04:00:28.139Z,3.1
2018-02-10T04:01:27.642Z,3.04
2018-02-10T04:02:28.161Z,2.87
2018-02-10T04:03:27.675Z,2.98
2018-02-10T04:04:27.934Z,3.05
2018-02-10T04:05:27.692Z,3.13
2018-02-10T04:06:28.210Z,3.13
2018-02-10T04:07:27.972Z,3.07
2018-02-10T04:08:28.344Z,3.03
2018-02-10T04:09:27.998Z,2.82
2018-02-10T04:10:27.758Z,3.05
2018-02-10T04:11:28.025Z,2.95
2018-02-10T04:12:28.293Z,3
2018-02-10T04:13:28.306Z,2.85
2018-02-10T04:14:27.810Z,2.92
2018-02-10T04:15:28.339Z,2.86
2018-02-10T04:16:28.089Z,2.92
2018-02-10T04:17:28.358Z,2.95
2018-02-10T04:18:27.859Z,2.93
2018-02-10T04:19:28.374Z,2.95
2018-02-10T04:20:28.400Z,2.98
2018-02-10T04:21:28.403Z,2.98
2018-02-10T04:22:27.911Z,2.89
2018-02-10T04:23:28.176Z,3
2018-02-10T04:24:28.440Z,3
2018-02-10T04:25:28.201Z,2.92
2018-02-10T04:26:28.214Z,2.86
2018-02-10T04:27:28.231Z,2.75
2018-02-10T04:28:28.489Z,2.83
2018-02-10T04:29:28.252Z,2.95
2018-02-10T04:30:28.017Z,3.03
2018-02-10T04:31:28.282Z,2.89
2018-02-10T04:32:28.293Z,2.85
2018-02-10T04:33:28.050Z,2.93
2018-02-10T04:34:28.566Z,2.83
2018-02-10T04:35:28.582Z,2.95
2018-02-10T04:36:28.588Z,3.04
2018-02-10T04:37:28.353Z,2.97
2018-02-10T04:38:28.162Z,2.9
2018-02-10T04:39:28.399Z,2.83
2018-02-10T04:40:28.653Z,2.75
2018-02-10T04:41:28.404Z,2.93
2018-02-10T04:42:28.665Z,2.97
2018-02-10T04:43:28.176Z,2.97
2018-02-10T04:44:28.443Z,2.9
2018-02-10T04:45:28.456Z,2.82
2018-02-10T04:46:28.467Z,2.82
2018-02-10T04:47:28.478Z,2.9
2018-02-10T04:48:28.745Z,2.69
2018-02-10T04:49:28.520Z,2.8
2018-02-10T04:50:28.517Z,2.82
2018-02-10T04:51:28.528Z,2.71
2018-02-10T04:52:28.291Z,2.83
2018-02-10T04:53:28.555Z,2.9
2018-02-10T04:54:28.566Z,2.89
2018-02-10T04:55:28.831Z,2.97
2018-02-10T04:56:28.590Z,2.97
2018-02-10T04:57:28.696Z,2.93
2018-02-10T04:58:28.867Z,2.83
2018-02-10T04:59:28.379Z,2.82
2018-02-10T05:00:28.910Z,2.86
2018-02-10T05:01:28.905Z,2.8
2018-02-10T05:02:28.420Z,2.92
2018-02-10T05:03:28.700Z,2.87
2018-02-10T05:04:28.696Z,2.74
2018-02-10T05:05:28.973Z,2.86
2018-02-10T05:06:28.716Z,2.86
2018-02-10T05:07:28.990Z,2.83
2018-02-10T05:08:28.495Z,2.87
2018-02-10T05:09:28.758Z,2.87
2018-02-10T05:10:28.775Z,2.82
2018-02-10T05:11:29.034Z,2.82
2018-02-10T05:12:28.794Z,2.83
2018-02-10T05:13:29.058Z,2.85
2018-02-10T05:14:29.075Z,2.87
2018-02-10T05:15:28.591Z,2.83
2018-02-10T05:16:29.098Z,2.85
2018-02-10T05:17:29.110Z,2.72
2018-02-10T05:18:29.129Z,2.69
2018-02-10T05:19:28.887Z,2.77
2018-02-10T05:20:29.146Z,2.74
2018-02-10T05:21:28.655Z,2.85
2018-02-10T05:22:28.922Z,2.82
2018-02-10T05:23:28.928Z,2.85
2018-02-10T05:24:28.947Z,2.85
2018-02-10T05:25:29.256Z,2.82
2018-02-10T05:26:28.966Z,2.92
2018-02-10T05:27:28.985Z,2.92
2018-02-10T05:28:28.988Z,3.07
2018-02-10T05:29:29.017Z,3.14
2018-02-10T05:30:29.018Z,3
2018-02-10T05:31:29.285Z,2.95
2018-02-10T05:32:28.795Z,3.13
2018-02-10T05:33:29.056Z,3
2018-02-10T05:34:29.337Z,2.95
2018-02-10T05:35:29.087Z,2.95
2018-02-10T05:36:29.098Z,3
2018-02-10T05:37:28.880Z,3.05
2018-02-10T05:38:28.883Z,2.92
2018-02-10T05:39:28.883Z,2.98
2018-02-10T05:40:28.901Z,3.01
2018-02-10T05:41:28.909Z,3.1
2018-02-10T05:42:29.173Z,3.23
2018-02-10T05:43:29.190Z,3.22
2018-02-10T05:44:29.289Z,3.18
2018-02-10T05:45:28.961Z,3.14
2018-02-10T05:46:29.224Z,3.1
2018-02-10T05:47:29.241Z,3.04
2018-02-10T05:48:28.996Z,3.1
2018-02-10T05:49:29.512Z,3.13
2018-02-10T05:50:29.024Z,3.25
2018-02-10T05:51:29.533Z,3.23
2018-02-10T05:52:29.314Z,3.21
2018-02-10T05:53:29.617Z,3.23
2018-02-10T05:54:29.322Z,3.21
2018-02-10T05:55:29.593Z,3.18
2018-02-10T05:56:29.601Z,3.14
2018-02-10T05:57:29.112Z,3.25
2018-02-10T05:58:29.634Z,3.19
2018-02-10T05:59:29.143Z,3.07
2018-02-10T06:00:29.403Z,3.05
2018-02-10T06:01:29.432Z,3.13
2018-02-10T06:02:29.181Z,3.22
2018-02-10T06:03:29.197Z,3.14
2018-02-10T06:04:29.455Z,3.16
2018-02-10T06:05:29.467Z,3.19
2018-02-10T06:06:29.737Z,3.25
2018-02-10T06:07:29.249Z,3.21
2018-02-10T06:08:29.502Z,3.25
2018-02-10T06:09:29.770Z,3.05
2018-02-10T06:10:29.281Z,3.03
2018-02-10T06:11:29.294Z,3.03
2018-02-10T06:12:29.831Z,3.03
2018-02-10T06:13:29.321Z,2.86
2018-02-10T06:14:29.789Z,2.89
2018-02-10T06:15:29.852Z,2.93
2018-02-10T06:16:29.611Z,3.03
2018-02-10T06:17:29.622Z,2.97
2018-02-10T06:18:29.635Z,2.97
2018-02-10T06:19:29.395Z,3.13
2018-02-10T06:20:29.685Z,3.22
2018-02-10T06:21:29.932Z,3.22
2018-02-10T06:22:29.941Z,3.34
2018-02-10T06:23:29.449Z,3.29
2018-02-10T06:24:29.714Z,3.47
2018-02-10T06:25:29.727Z,3.42
2018-02-10T06:26:30.021Z,3.44
2018-02-10T06:27:29.756Z,3.47
2018-02-10T06:28:29.769Z,3.32
2018-02-10T06:29:29.531Z,3.29
2018-02-10T06:30:30.054Z,3.21
2018-02-10T06:31:29.804Z,3.21
2018-02-10T06:32:30.158Z,3.22
2018-02-10T06:33:29.584Z,3.25
2018-02-10T06:34:29.844Z,3.19
2018-02-10T06:35:29.860Z,3.18
2018-02-10T06:36:30.128Z,3.21
2018-02-10T06:37:29.892Z,3.22
2018-02-10T06:38:29.897Z,3.22
2018-02-10T06:39:29.916Z,3.21
2018-02-10T06:40:30.204Z,3.29
2018-02-10T06:41:29.936Z,3.36
2018-02-10T06:42:30.208Z,3.36
2018-02-10T06:43:29.716Z,3.31
2018-02-10T06:44:30.231Z,3.22
2018-02-10T06:45:29.998Z,3.29
2018-02-10T06:46:30.252Z,3.4
2018-02-10T06:47:30.266Z,3.31
2018-02-10T06:48:30.026Z,3.41
2018-02-10T06:49:30.045Z,3.42
2018-02-10T06:50:30.315Z,3.48
2018-02-10T06:51:30.316Z,3.44
2018-02-10T06:52:30.331Z,3.47
2018-02-10T06:53:30.096Z,3.45
2018-02-10T06:54:29.854Z,3.47
2018-02-10T06:55:29.869Z,3.62
2018-02-10T06:56:30.133Z,3.6
2018-02-10T06:57:30.143Z,3.56
2018-02-10T06:58:30.178Z,3.6
2018-02-10T06:59:30.178Z,3.56
2018-02-10T07:00:29.933Z,3.55
2018-02-10T07:01:29.949Z,3.48
2018-02-10T07:02:30.208Z,3.47
2018-02-10T07:03:29.985Z,3.37
2018-02-10T07:04:29.983Z,3.29
2018-02-10T07:05:30.250Z,3.4
2018-02-10T07:06:30.515Z,3.53
2018-02-10T07:07:30.022Z,3.45
2018-02-10T07:08:30.037Z,3.34
2018-02-10T07:09:30.064Z,3.31
2018-02-10T07:10:30.318Z,3.25
2018-02-10T07:11:30.328Z,3.25
2018-02-10T07:12:30.606Z,3.26
2018-02-10T07:13:30.599Z,3.22
2018-02-10T07:14:30.361Z,3.23
2018-02-10T07:15:30.372Z,3.22
2018-02-10T07:16:30.397Z,3.25
2018-02-10T07:17:30.654Z,3.32
2018-02-10T07:18:30.166Z,3.4
2018-02-10T07:19:30.184Z,3.36
2018-02-10T07:20:30.447Z,3.36
2018-02-10T07:21:30.209Z,3.5
2018-02-10T07:22:30.723Z,3.6
2018-02-10T07:23:30.737Z,3.68
2018-02-10T07:24:30.501Z,3.74
2018-02-10T07:25:30.510Z,3.74
2018-02-10T07:26:30.525Z,3.74
2018-02-10T07:27:30.794Z,3.73
2018-02-10T07:28:30.553Z,3.62
2018-02-10T07:29:30.818Z,3.73
2018-02-10T07:30:30.579Z,3.77
2018-02-10T07:31:30.358Z,3.62
2018-02-10T07:32:30.863Z,3.58
2018-02-10T07:33:30.871Z,3.55
2018-02-10T07:34:30.627Z,3.45
2018-02-10T07:35:30.645Z,3.51
2018-02-10T07:36:30.662Z,3.56
2018-02-10T07:37:30.670Z,3.6
2018-02-10T07:38:30.692Z,3.77
2018-02-10T07:39:30.693Z,3.86
2018-02-10T07:40:30.957Z,3.87
2018-02-10T07:41:30.468Z,3.96
2018-02-10T07:42:30.731Z,3.88
2018-02-10T07:43:31.007Z,3.74
2018-02-10T07:44:31.009Z,3.69
2018-02-10T07:45:30.520Z,3.62
2018-02-10T07:46:31.041Z,3.6
2018-02-10T07:47:31.054Z,3.62
2018-02-10T07:48:31.068Z,3.6
2018-02-10T07:49:30.823Z,3.68
2018-02-10T07:50:30.838Z,3.51
2018-02-10T07:51:30.601Z,3.56
2018-02-10T07:52:30.868Z,3.56
2018-02-10T07:53:30.624Z,3.48
2018-02-10T07:54:30.897Z,3.25
2018-02-10T07:55:30.654Z,3.32
2018-02-10T07:56:31.170Z,3.29
2018-02-10T07:57:30.934Z,3.48
2018-02-10T07:58:31.195Z,3.42
2018-02-10T07:59:30.958Z,3.53
2018-02-10T08:00:30.729Z,3.59
2018-02-10T08:01:30.981Z,3.58
2018-02-10T08:02:31.001Z,3.62
2018-02-10T08:03:31.023Z,3.73
2018-02-10T08:04:31.025Z,3.84
2018-02-10T08:05:31.037Z,3.84
2018-02-10T08:06:31.045Z,3.81
2018-02-10T08:07:31.323Z,3.84
2018-02-10T08:08:31.072Z,3.78
2018-02-10T08:09:31.086Z,3.6
2018-02-10T08:10:30.898Z,3.48
2018-02-10T08:11:31.116Z,3.56
2018-02-10T08:12:31.396Z,3.36
2018-02-10T08:13:31.396Z,3.32
2018-02-10T08:14:31.429Z,3.41
2018-02-10T08:15:31.163Z,3.4
2018-02-10T08:16:31.183Z,3.34
2018-02-10T08:17:31.443Z,3.59
2018-02-10T08:18:31.206Z,3.76
2018-02-10T08:19:31.220Z,3.68
2018-02-10T08:20:31.513Z,3.58
2018-02-10T08:21:30.996Z,3.65
2018-02-10T08:22:31.021Z,3.69
2018-02-10T08:23:31.275Z,3.66
2018-02-10T08:24:31.034Z,3.48
2018-02-10T08:25:31.303Z,3.29
2018-02-10T08:26:31.313Z,3.34
2018-02-10T08:27:31.075Z,3.29
2018-02-10T08:28:31.101Z,3.26
2018-02-10T08:29:31.103Z,3.25
2018-02-10T08:30:31.368Z,3.5
2018-02-10T08:31:31.397Z,3.44
2018-02-10T08:32:31.650Z,3.48
2018-02-10T08:33:31.660Z,3.31
2018-02-10T08:34:31.173Z,3.22
2018-02-10T08:35:31.184Z,3.19
2018-02-10T08:36:31.648Z,3.23
2018-02-10T08:37:31.460Z,3.25
2018-02-10T08:38:31.222Z,3.36
2018-02-10T08:39:31.485Z,3.34
2018-02-10T08:40:31.752Z,3.56
2018-02-10T08:41:31.512Z,3.53
2018-02-10T08:42:31.524Z,3.68
2018-02-10T08:43:31.794Z,3.76
2018-02-10T08:44:31.301Z,3.42
2018-02-10T08:45:31.590Z,3.47
2018-02-10T08:46:31.828Z,3.32
2018-02-10T08:47:31.603Z,3.36
2018-02-10T08:48:31.858Z,3.47
2018-02-10T08:49:31.869Z,3.76
2018-02-10T08:50:31.903Z,3.66
2018-02-10T08:51:31.397Z,3.76
2018-02-10T08:52:31.922Z,3.8
2018-02-10T08:53:31.414Z,3.91
2018-02-10T08:54:31.681Z,3.78
2018-02-10T08:55:31.953Z,3.78
2018-02-10T08:56:31.713Z,3.62
2018-02-10T08:57:31.724Z,3.65
2018-02-10T08:58:31.991Z,3.65
2018-02-10T08:59:31.751Z,3.66
2018-02-10T09:00:31.511Z,3.56
2018-02-10T09:01:32.082Z,3.55
2018-02-10T09:02:32.043Z,3.58
2018-02-10T09:03:31.806Z,3.74
2018-02-10T09:04:31.838Z,3.73
2018-02-10T09:05:32.086Z,3.73
2018-02-10T09:06:31.595Z,3.76
2018-02-10T09:07:32.171Z,3.8
2018-02-10T09:08:31.619Z,3.8
2018-02-10T09:09:31.637Z,3.81
2018-02-10T09:10:31.648Z,4.01
2018-02-10T09:11:32.168Z,4.02
2018-02-10T09:12:31.929Z,3.87
2018-02-10T09:13:32.190Z,3.91
2018-02-10T09:14:31.958Z,3.95
2018-02-10T09:15:31.971Z,4.02
2018-02-10T09:16:32.228Z,3.74
2018-02-10T09:17:31.998Z,3.86
2018-02-10T09:18:32.005Z,3.77
2018-02-10T09:19:31.769Z,3.66
2018-02-10T09:20:32.066Z,3.68
2018-02-10T09:21:32.300Z,3.65
2018-02-10T09:22:32.309Z,3.6
2018-02-10T09:23:32.332Z,3.7
2018-02-10T09:24:32.337Z,3.74
2018-02-10T09:25:32.100Z,3.69
2018-02-10T09:26:32.385Z,3.77
2018-02-10T09:27:32.134Z,3.8
2018-02-10T09:28:32.396Z,3.87
2018-02-10T09:29:32.152Z,3.84
2018-02-10T09:30:32.416Z,3.59
2018-02-10T09:31:32.433Z,3.74
2018-02-10T09:32:32.190Z,3.63
2018-02-10T09:33:31.958Z,3.76
2018-02-10T09:34:31.967Z,3.86
2018-02-10T09:35:32.230Z,3.98
2018-02-10T09:36:32.497Z,4.06
2018-02-10T09:37:32.009Z,4.28
2018-02-10T09:38:32.272Z,4.48
2018-02-10T09:39:32.040Z,4.59
2018-02-10T09:40:32.308Z,4.6
2018-02-10T09:41:32.313Z,4.75
2018-02-10T09:42:32.079Z,4.71
2018-02-10T09:43:32.341Z,4.6
2018-02-10T09:44:32.603Z,4.45
2018-02-10T09:45:32.625Z,4.55
2018-02-10T09:46:32.635Z,4.62
2018-02-10T09:47:32.643Z,4.63
2018-02-10T09:48:32.659Z,4.53
2018-02-10T09:49:32.187Z,4.48
2018-02-10T09:50:32.184Z,4.41
2018-02-10T09:51:32.448Z,4.38
2018-02-10T09:52:32.714Z,4.44
2018-02-10T09:53:32.479Z,4.34
2018-02-10T09:54:32.741Z,4.12
2018-02-10T09:55:32.756Z,4.01
2018-02-10T09:56:32.509Z,4.2
2018-02-10T09:57:32.527Z,4.31
2018-02-10T09:58:32.545Z,4.34
2018-02-10T09:59:32.802Z,4.59
2018-02-10T10:00:32.567Z,4.7
2018-02-10T10:01:32.586Z,4.77
2018-02-10T10:02:32.871Z,4.82
2018-02-10T10:03:32.614Z,4.68
2018-02-10T10:04:32.373Z,4.75
2018-02-10T10:05:32.889Z,4.78
2018-02-10T10:06:32.400Z,4.78
2018-02-10T10:07:32.666Z,4.78
2018-02-10T10:08:32.941Z,4.9
2018-02-10T10:09:32.697Z,4.94
2018-02-10T10:10:32.707Z,4.92
2018-02-10T10:11:32.723Z,4.9
2018-02-10T10:12:32.741Z,4.93
2018-02-10T10:13:32.754Z,5.02
2018-02-10T10:14:33.015Z,5.08
2018-02-10T10:15:32.781Z,5.08
2018-02-10T10:16:32.813Z,5.05
2018-02-10T10:17:32.813Z,5.14
2018-02-10T10:18:32.821Z,5.39
2018-02-10T10:19:33.108Z,5.39
2018-02-10T10:20:33.108Z,5.53
2018-02-10T10:21:32.861Z,5.43
2018-02-10T10:22:33.130Z,5.51
2018-02-10T10:23:33.143Z,5.54
2018-02-10T10:24:32.911Z,5.47
2018-02-10T10:25:32.673Z,5.47
2018-02-10T10:26:33.190Z,5.48
2018-02-10T10:27:32.964Z,5.44
2018-02-10T10:28:32.963Z,5.53
2018-02-10T10:29:32.977Z,5.64
2018-02-10T10:30:32.993Z,5.64
2018-02-10T10:31:33.256Z,5.65
2018-02-10T10:32:33.019Z,5.66
2018-02-10T10:33:33.300Z,5.53
2018-02-10T10:34:33.047Z,5.39
2018-02-10T10:35:33.062Z,5.43
2018-02-10T10:36:33.076Z,5.41
2018-02-10T10:37:33.093Z,5.44
2018-02-10T10:38:33.360Z,5.62
2018-02-10T10:39:32.868Z,5.64
2018-02-10T10:40:33.180Z,5.46
2018-02-10T10:41:32.898Z,5.66
2018-02-10T10:42:32.913Z,5.68
2018-02-10T10:43:33.192Z,5.72
2018-02-10T10:44:33.197Z,5.71
2018-02-10T10:45:33.063Z,5.64
2018-02-10T10:46:33.469Z,5.48
2018-02-10T10:47:33.235Z,5.53
2018-02-10T10:48:33.524Z,5.29
2018-02-10T10:49:33.517Z,5.41
2018-02-10T10:50:33.026Z,5.41
2018-02-10T10:51:33.040Z,5.15
2018-02-10T10:52:33.308Z,5.02
2018-02-10T10:53:33.329Z,5.11
2018-02-10T10:54:33.588Z,5.26
2018-02-10T10:55:33.100Z,5.38
2018-02-10T10:56:33.618Z,5.44
2018-02-10T10:57:33.378Z,5.47
2018-02-10T10:58:33.650Z,5.64
2018-02-10T10:59:33.156Z,5.71
2018-02-10T11:00:33.290Z,5.68
2018-02-10T11:01:33.445Z,5.89
2018-02-10T11:02:33.716Z,5.98
2018-02-10T11:03:33.471Z,6.12
2018-02-10T11:04:33.740Z,6.35
2018-02-10T11:05:33.497Z,6.28
2018-02-10T11:06:33.260Z,6.12
2018-02-10T11:07:33.529Z,6.02
2018-02-10T11:08:33.293Z,6.08
2018-02-10T11:09:33.807Z,6.26
2018-02-10T11:10:33.578Z,6.31
2018-02-10T11:11:33.586Z,6.44
2018-02-10T11:12:33.599Z,6.45
2018-02-10T11:13:33.616Z,6.48
2018-02-10T11:14:33.902Z,6.57
2018-02-10T11:15:48.571Z,6.64
2018-02-10T11:16:33.905Z,6.54
2018-02-10T11:17:33.939Z,6.57
2018-02-10T11:18:33.685Z,6.75
2018-02-10T11:19:33.700Z,6.72
2018-02-10T11:20:33.718Z,6.77
2018-02-10T11:21:33.727Z,6.88
2018-02-10T11:22:33.748Z,6.88
2018-02-10T11:23:33.760Z,6.96
2018-02-10T11:24:33.776Z,6.97
2018-02-10T11:25:33.804Z,7.03
2018-02-10T11:26:34.060Z,6.96
2018-02-10T11:27:33.826Z,6.7
2018-02-10T11:28:33.846Z,6.64
2018-02-10T11:29:33.873Z,6.77
2018-02-10T11:30:33.876Z,6.56
2018-02-10T11:31:33.642Z,6.38
2018-02-10T11:32:33.932Z,6.46
2018-02-10T11:33:33.998Z,6.56
2018-02-10T11:34:34.197Z,6.39
2018-02-10T11:35:33.703Z,6.38
2018-02-10T11:36:33.970Z,6.44
2018-02-10T11:37:34.237Z,6.26
2018-02-10T11:38:34.257Z,6.02
2018-02-10T11:39:34.021Z,6.08
2018-02-10T11:40:33.781Z,6.31
2018-02-10T11:41:34.303Z,6.27
2018-02-10T11:42:34.316Z,6.22
2018-02-10T11:43:34.082Z,6.11
2018-02-10T11:44:33.840Z,6.3
2018-02-10T11:45:34.111Z,6.38
2018-02-10T11:46:34.377Z,6.48
2018-02-10T11:47:34.156Z,6.62
2018-02-10T11:48:34.162Z,6.28
2018-02-10T11:49:34.177Z,6.07
2018-02-10T11:50:34.185Z,5.89
2018-02-10T11:51:33.954Z,6.12
2018-02-10T11:52:33.977Z,6.11
2018-02-10T11:53:34.234Z,5.9
2018-02-10T11:54:34.261Z,5.8
2018-02-10T11:55:34.517Z,5.89
2018-02-10T11:56:34.532Z,6.02
2018-02-10T11:57:34.039Z,6.12
2018-02-10T11:58:34.315Z,6.08
2018-02-10T11:59:34.697Z,5.83
2018-02-10T12:00:34.339Z,6.01
2018-02-10T12:01:34.101Z,6.07
2018-02-10T12:02:34.624Z,6.05
2018-02-10T12:03:34.386Z,6.01
2018-02-10T12:04:34.655Z,5.99
2018-02-10T12:05:34.481Z,5.71
2018-02-10T12:06:34.423Z,5.8
2018-02-10T12:07:34.440Z,6.01
2018-02-10T12:08:34.453Z,6.11
2018-02-10T12:09:34.726Z,6.22
2018-02-10T12:10:34.486Z,6.38
2018-02-10T12:11:34.505Z,6.09
2018-02-10T12:12:34.520Z,6.09
2018-02-10T12:13:34.833Z,6.09
2018-02-10T12:14:34.305Z,6.17
2018-02-10T12:15:34.813Z,6.09
2018-02-10T12:16:34.827Z,6.07
2018-02-10T12:17:34.597Z,6.08
2018-02-10T12:18:34.358Z,6.01
2018-02-10T12:19:34.634Z,6.02
2018-02-10T12:20:34.653Z,6.08
2018-02-10T12:21:34.661Z,5.99
2018-02-10T12:22:34.669Z,6.05
2018-02-10T12:23:34.959Z,6.16
2018-02-10T12:24:34.444Z,6.12
2018-02-10T12:25:34.714Z,5.87
2018-02-10T12:26:34.979Z,5.72
2018-02-10T12:27:34.497Z,5.91
2018-02-10T12:28:35.009Z,6.04
2018-02-10T12:29:34.768Z,5.87
2018-02-10T12:30:34.839Z,6.02
2018-02-10T12:31:34.802Z,6.02
2018-02-10T12:32:35.075Z,5.91
2018-02-10T12:33:35.089Z,5.83
2018-02-10T12:34:34.600Z,5.76
2018-02-10T12:35:34.863Z,5.99
2018-02-10T12:36:34.629Z,6.07
2018-02-10T12:37:35.151Z,6.17
2018-02-10T12:38:34.928Z,6.38
2018-02-10T12:39:34.925Z,6.44
2018-02-10T12:40:34.945Z,6.52
2018-02-10T12:41:35.207Z,6.78
2018-02-10T12:42:34.975Z,6.78
2018-02-10T12:43:35.290Z,6.87
2018-02-10T12:44:35.311Z,6.69
2018-02-10T12:45:35.017Z,6.74
2018-02-10T12:46:35.282Z,6.7
2018-02-10T12:47:35.248Z,6.79
2018-02-10T12:48:35.306Z,6.84
2018-02-10T12:49:35.077Z,6.79
2018-02-10T12:50:35.119Z,6.74
2018-02-10T12:51:35.111Z,6.88
2018-02-10T12:52:35.136Z,6.87
2018-02-10T12:53:35.391Z,6.82
2018-02-10T12:54:35.154Z,6.77
2018-02-10T12:55:35.185Z,6.82
2018-02-10T12:56:35.189Z,6.52
2018-02-10T12:57:35.205Z,6.52
2018-02-10T12:58:35.216Z,6.69
2018-02-10T12:59:35.236Z,6.72
2018-02-10T13:00:35.503Z,6.82
2018-02-10T13:01:35.263Z,6.92
2018-02-10T13:02:35.030Z,7.06
2018-02-10T13:03:35.296Z,7.29
2018-02-10T13:04:35.566Z,7.4
2018-02-10T13:05:35.336Z,7.57
2018-02-10T13:06:35.098Z,7.58
2018-02-10T13:07:35.110Z,7.7
2018-02-10T13:08:35.128Z,7.85
2018-02-10T13:09:35.662Z,7.88
2018-02-10T13:10:35.663Z,7.82
2018-02-10T13:11:35.430Z,7.75
2018-02-10T13:12:35.478Z,7.83
2018-02-10T13:13:35.461Z,7.42
2018-02-10T13:14:35.475Z,7.4
2018-02-10T13:15:35.491Z,7.45
2018-02-10T13:16:35.505Z,7.23
2018-02-10T13:17:35.776Z,6.89
2018-02-10T13:18:35.793Z,6.84
2018-02-10T13:19:35.805Z,6.78
2018-02-10T13:20:35.569Z,6.93
2018-02-10T13:21:35.590Z,7.07